sensor_id;sensor_type;location;lat;lon;timestamp;pressure;altitude;pressure_sealevel;temperature;humidity
68594;BME280;55563;52.416;13.548;2023-09-30T00:00:56;101557.91;;;17.19;100.00
68594;BME280;55563;52.416;13.548;2023-09-30T00:02:56;101572.66;;;17.06;100.00
68594;BME280;55563;52.416;13.548;2023-09-30T00:04:57;101572.56;;;17.16;100.00
68594;BME280;55563;52.416;13.548;2023-09-30T00:06:58;101576.03;;;17.17;100.00
68594;BME280;55563;52.416;13.548;2023-09-30T00:08:58;101582.09;;;17.17;100.00
68594;BME280;55563;52.416;13.548;2023-09-30T00:10:59;101586.13;;;17.15;100.00
68594;BME280;55563;52.416;13.548;2023-09-30T00:13:00;101583.22;;;17.11;100.00
68594;BME280;55563;52.416;13.548;2023-09-30T00:15:04;101582.59;;;17.24;100.00
68594;BME280;55563;52.416;13.548;2023-09-30T00:17:05;101580.97;;;16.94;100.00
68594;BME280;55563;52.416;13.548;2023-09-30T00:19:06;101585.88;;;17.11;100.00
68594;BME280;55563;52.416;13.548;2023-09-30T00:21:06;101582.94;;;17.13;100.00
68594;BME280;55563;52.416;13.548;2023-09-30T00:23:08;101589.66;;;17.05;100.00
68594;BME280;55563;52.416;13.548;2023-09-30T00:25:09;101596.81;;;17.05;100.00
68594;BME280;55563;52.416;13.548;2023-09-30T00:27:10;101599.47;;;17.05;100.00
68594;BME280;55563;52.416;13.548;2023-09-30T00:29:11;101600.59;;;16.98;100.00
68594;BME280;55563;52.416;13.548;2023-09-30T00:31:12;101607.00;;;16.97;100.00
68594;BME280;55563;52.416;13.548;2023-09-30T00:33:13;101602.97;;;17.00;100.00
68594;BME280;55563;52.416;13.548;2023-09-30T00:35:15;101613.19;;;16.83;100.00
68594;BME280;55563;52.416;13.548;2023-09-30T00:37:16;101617.22;;;16.75;100.00
68594;BME280;55563;52.416;13.548;2023-09-30T00:39:17;101616.72;;;16.73;100.00
68594;BME280;55563;52.416;13.548;2023-09-30T00:41:18;101614.31;;;16.72;100.00
68594;BME280;55563;52.416;13.548;2023-09-30T00:43:20;101631.34;;;16.61;100.00
68594;BME280;55563;52.416;13.548;2023-09-30T00:45:21;101629.78;;;16.54;100.00
68594;BME280;55563;52.416;13.548;2023-09-30T00:47:23;101632.19;;;16.46;100.00
68594;BME280;55563;52.416;13.548;2023-09-30T00:49:25;101629.28;;;16.47;100.00
68594;BME280;55563;52.416;13.548;2023-09-30T00:51:26;101627.72;;;16.41;100.00
68594;BME280;55563;52.416;13.548;2023-09-30T00:53:28;101628.81;;;16.35;100.00
68594;BME280;55563;52.416;13.548;2023-09-30T00:55:29;101639.38;;;16.40;100.00
68594;BME280;55563;52.416;13.548;2023-09-30T00:57:31;101638.38;;;16.26;100.00
68594;BME280;55563;52.416;13.548;2023-09-30T00:59:32;101633.91;;;16.22;100.00
68594;BME280;55563;52.416;13.548;2023-09-30T01:01:33;101646.13;;;16.18;100.00
68594;BME280;55563;52.416;13.548;2023-09-30T01:03:36;101651.44;;;16.12;100.00
68594;BME280;55563;52.416;13.548;2023-09-30T01:05:38;101642.16;;;16.10;100.00
68594;BME280;55563;52.416;13.548;2023-09-30T01:07:38;101642.72;;;16.02;100.00
68594;BME280;55563;52.416;13.548;2023-09-30T01:09:39;101642.72;;;16.02;100.00
68594;BME280;55563;52.416;13.548;2023-09-30T01:11:40;101657.06;;;16.01;100.00
68594;BME280;55563;52.416;13.548;2023-09-30T01:13:42;101662.13;;;15.87;100.00
68594;BME280;55563;52.416;13.548;2023-09-30T01:15:45;101659.72;;;15.91;100.00
68594;BME280;55563;52.416;13.548;2023-09-30T01:17:48;101664.50;;;15.84;100.00
68594;BME280;55563;52.416;13.548;2023-09-30T01:19:50;101670.91;;;15.67;100.00
68594;BME280;55563;52.416;13.548;2023-09-30T01:21:55;101662.94;;;15.67;100.00
68594;BME280;55563;52.416;13.548;2023-09-30T01:23:59;101668.50;;;15.61;100.00
68594;BME280;55563;52.416;13.548;2023-09-30T01:26:02;101673.28;;;15.54;100.00
68594;BME280;55563;52.416;13.548;2023-09-30T01:28:07;101676.19;;;15.57;100.00
68594;BME280;55563;52.416;13.548;2023-09-30T01:30:08;101677.00;;;15.58;100.00
68594;BME280;55563;52.416;13.548;2023-09-30T01:32:11;101678.28;;;15.50;100.00
68594;BME280;55563;52.416;13.548;2023-09-30T01:34:12;101689.94;;;15.39;100.00
68594;BME280;55563;52.416;13.548;2023-09-30T01:36:12;101690.25;;;15.53;100.00
68594;BME280;55563;52.416;13.548;2023-09-30T01:38:14;101696.31;;;15.43;100.00
68594;BME280;55563;52.416;13.548;2023-09-30T01:40:15;101698.16;;;15.43;100.00
68594;BME280;55563;52.416;13.548;2023-09-30T01:42:16;101700.78;;;15.27;100.00
68594;BME280;55563;52.416;13.548;2023-09-30T01:44:17;101698.41;;;15.31;100.00
68594;BME280;55563;52.416;13.548;2023-09-30T01:46:18;101702.13;;;15.25;100.00
68594;BME280;55563;52.416;13.548;2023-09-30T01:48:18;101701.03;;;15.21;100.00
68594;BME280;55563;52.416;13.548;2023-09-30T01:50:20;101708.44;;;15.09;100.00
68594;BME280;55563;52.416;13.548;2023-09-30T01:52:21;101723.28;;;15.10;100.00
68594;BME280;55563;52.416;13.548;2023-09-30T01:54:21;101722.50;;;15.14;100.00
68594;BME280;55563;52.416;13.548;2023-09-30T01:56:22;101716.13;;;15.10;100.00
68594;BME280;55563;52.416;13.548;2023-09-30T01:58:23;101712.13;;;14.98;100.00
68594;BME280;55563;52.416;13.548;2023-09-30T02:00:26;101720.06;;;14.98;100.00
68594;BME280;55563;52.416;13.548;2023-09-30T02:02:29;101720.59;;;15.00;100.00
68594;BME280;55563;52.416;13.548;2023-09-30T02:04:30;101723.75;;;14.97;100.00
68594;BME280;55563;52.416;13.548;2023-09-30T02:06:31;101720.84;;;14.93;100.00
68594;BME280;55563;52.416;13.548;2023-09-30T02:08:32;101715.28;;;14.95;100.00
68594;BME280;55563;52.416;13.548;2023-09-30T02:10:34;101729.84;;;14.92;100.00
68594;BME280;55563;52.416;13.548;2023-09-30T02:12:34;101732.75;;;14.86;100.00
68594;BME280;55563;52.416;13.548;2023-09-30T02:14:38;101734.84;;;14.83;100.00
68594;BME280;55563;52.416;13.548;2023-09-30T02:16:40;101742.22;;;14.76;100.00
68594;BME280;55563;52.416;13.548;2023-09-30T02:18:43;101745.09;;;14.70;100.00
68594;BME280;55563;52.416;13.548;2023-09-30T02:20:46;101748.34;;;14.77;100.00
68594;BME280;55563;52.416;13.548;2023-09-30T02:22:47;101756.28;;;14.77;100.00
68594;BME280;55563;52.416;13.548;2023-09-30T02:24:49;101755.72;;;14.75;100.00
68594;BME280;55563;52.416;13.548;2023-09-30T02:26:50;101753.84;;;14.70;100.00
68594;BME280;55563;52.416;13.548;2023-09-30T02:28:51;101754.81;;;14.54;100.00
68594;BME280;55563;52.416;13.548;2023-09-30T02:30:53;101751.41;;;14.59;100.00
68594;BME280;55563;52.416;13.548;2023-09-30T02:32:54;101750.31;;;14.55;100.00
68594;BME280;55563;52.416;13.548;2023-09-30T02:34:56;101756.22;;;14.67;100.00
68594;BME280;55563;52.416;13.548;2023-09-30T02:36:57;101761.72;;;14.55;100.00
68594;BME280;55563;52.416;13.548;2023-09-30T02:39:01;101760.31;;;14.43;100.00
68594;BME280;55563;52.416;13.548;2023-09-30T02:41:03;101761.16;;;14.48;100.00
68594;BME280;55563;52.416;13.548;2023-09-30T02:43:03;101768.97;;;14.33;100.00
68594;BME280;55563;52.416;13.548;2023-09-30T02:45:05;101773.25;;;14.39;100.00
68594;BME280;55563;52.416;13.548;2023-09-30T02:47:06;101768.50;;;14.41;100.00
68594;BME280;55563;52.416;13.548;2023-09-30T02:49:10;101781.88;;;14.29;100.00
68594;BME280;55563;52.416;13.548;2023-09-30T02:51:11;101772.63;;;14.27;100.00
68594;BME280;55563;52.416;13.548;2023-09-30T02:53:12;101786.41;;;14.29;100.00
68594;BME280;55563;52.416;13.548;2023-09-30T02:55:13;101788.53;;;14.32;100.00
68594;BME280;55563;52.416;13.548;2023-09-30T02:57:14;101793.28;;;14.35;100.00
68594;BME280;55563;52.416;13.548;2023-09-30T02:59:15;101804.41;;;14.32;100.00
68594;BME280;55563;52.416;13.548;2023-09-30T03:01:17;101812.28;;;14.27;100.00
68594;BME280;55563;52.416;13.548;2023-09-30T03:03:18;101810.97;;;14.24;100.00
68594;BME280;55563;52.416;13.548;2023-09-30T03:05:19;101816.56;;;14.33;100.00
68594;BME280;55563;52.416;13.548;2023-09-30T03:07:20;101809.66;;;14.27;100.00
68594;BME280;55563;52.416;13.548;2023-09-30T03:09:22;101810.47;;;14.32;100.00
68594;BME280;55563;52.416;13.548;2023-09-30T03:11:22;101813.34;;;14.26;100.00
68594;BME280;55563;52.416;13.548;2023-09-30T03:13:23;101799.63;;;14.34;100.00
68594;BME280;55563;52.416;13.548;2023-09-30T03:15:25;101804.25;;;14.12;100.00
68594;BME280;55563;52.416;13.548;2023-09-30T03:17:25;101807.84;;;14.01;100.00
68594;BME280;55563;52.416;13.548;2023-09-30T03:19:26;101815.38;;;14.14;100.00
68594;BME280;55563;52.416;13.548;2023-09-30T03:21:27;101811.03;;;14.03;100.00
68594;BME280;55563;52.416;13.548;2023-09-30T03:23:28;101816.94;;;14.10;100.00
68594;BME280;55563;52.416;13.548;2023-09-30T03:25:31;101821.41;;;14.09;100.00
68594;BME280;55563;52.416;13.548;2023-09-30T03:27:33;101818.69;;;13.99;100.00
68594;BME280;55563;52.416;13.548;2023-09-30T03:29:36;101818.31;;;13.85;100.00
68594;BME280;55563;52.416;13.548;2023-09-30T03:31:38;101829.25;;;13.99;100.00
68594;BME280;55563;52.416;13.548;2023-09-30T03:33:39;101824.97;;;13.93;100.00
68594;BME280;55563;52.416;13.548;2023-09-30T03:35:39;101827.31;;;13.89;100.00
68594;BME280;55563;52.416;13.548;2023-09-30T03:37:40;101827.31;;;13.89;100.00
68594;BME280;55563;52.416;13.548;2023-09-30T03:39:41;101825.13;;;13.81;100.00
68594;BME280;55563;52.416;13.548;2023-09-30T03:41:42;101825.44;;;13.85;100.00
68594;BME280;55563;52.416;13.548;2023-09-30T03:43:43;101823.03;;;13.83;100.00
68594;BME280;55563;52.416;13.548;2023-09-30T03:45:43;101822.22;;;13.83;100.00
68594;BME280;55563;52.416;13.548;2023-09-30T03:47:45;101830.72;;;13.85;100.00
68594;BME280;55563;52.416;13.548;2023-09-30T03:49:48;101819.94;;;13.65;100.00
68594;BME280;55563;52.416;13.548;2023-09-30T03:51:48;101830.06;;;13.73;100.00
68594;BME280;55563;52.416;13.548;2023-09-30T03:53:51;101828.47;;;13.72;100.00
68594;BME280;55563;52.416;13.548;2023-09-30T03:55:52;101842.47;;;13.72;100.00
68594;BME280;55563;52.416;13.548;2023-09-30T03:57:53;101841.13;;;13.70;100.00
68594;BME280;55563;52.416;13.548;2023-09-30T03:59:54;101842.00;;;13.75;100.00
68594;BME280;55563;52.416;13.548;2023-09-30T04:01:54;101848.91;;;13.81;100.00
68594;BME280;55563;52.416;13.548;2023-09-30T04:03:55;101839.34;;;13.75;100.00
68594;BME280;55563;52.416;13.548;2023-09-30T04:05:56;101847.75;;;13.72;100.00
68594;BME280;55563;52.416;13.548;2023-09-30T04:07:57;101843.28;;;13.73;100.00
68594;BME280;55563;52.416;13.548;2023-09-30T04:09:58;101845.91;;;13.73;100.00
68594;BME280;55563;52.416;13.548;2023-09-30T04:12:01;101845.53;;;13.59;100.00
68594;BME280;55563;52.416;13.548;2023-09-30T04:14:03;101840.03;;;13.66;100.00
68594;BME280;55563;52.416;13.548;2023-09-30T04:16:04;101836.31;;;13.62;100.00
68594;BME280;55563;52.416;13.548;2023-09-30T04:18:05;101843.97;;;13.63;100.00
68594;BME280;55563;52.416;13.548;2023-09-30T04:20:07;101855.09;;;13.65;100.00
68594;BME280;55563;52.416;13.548;2023-09-30T04:22:11;101856.69;;;13.66;100.00
68594;BME280;55563;52.416;13.548;2023-09-30T04:24:12;101868.56;;;13.64;100.00
68594;BME280;55563;52.416;13.548;2023-09-30T04:26:13;101868.75;;;13.57;100.00
68594;BME280;55563;52.416;13.548;2023-09-30T04:28:13;101874.75;;;13.52;100.00
68594;BME280;55563;52.416;13.548;2023-09-30T04:30:14;101881.53;;;13.43;100.00
68594;BME280;55563;52.416;13.548;2023-09-30T04:32:15;101880.41;;;13.39;100.00
68594;BME280;55563;52.416;13.548;2023-09-30T04:34:16;101880.94;;;13.36;100.00
68594;BME280;55563;52.416;13.548;2023-09-30T04:36:17;101891.03;;;13.44;100.00
68594;BME280;55563;52.416;13.548;2023-09-30T04:38:17;101883.50;;;13.31;100.00
68594;BME280;55563;52.416;13.548;2023-09-30T04:40:18;101875.63;;;13.36;100.00
68594;BME280;55563;52.416;13.548;2023-09-30T04:42:20;101879.81;;;13.32;100.00
68594;BME280;55563;52.416;13.548;2023-09-30T04:44:21;101876.25;;;13.43;100.00
68594;BME280;55563;52.416;13.548;2023-09-30T04:46:23;101879.16;;;13.42;100.00
68594;BME280;55563;52.416;13.548;2023-09-30T04:48:24;101875.22;;;13.23;100.00
68594;BME280;55563;52.416;13.548;2023-09-30T04:50:25;101875.63;;;13.36;100.00
68594;BME280;55563;52.416;13.548;2023-09-30T04:52:25;101882.13;;;13.29;100.00
68594;BME280;55563;52.416;13.548;2023-09-30T04:54:28;101874.84;;;13.36;100.00
68594;BME280;55563;52.416;13.548;2023-09-30T04:56:30;101871.41;;;13.35;100.00
68594;BME280;55563;52.416;13.548;2023-09-30T04:58:30;101870.34;;;13.36;100.00
68594;BME280;55563;52.416;13.548;2023-09-30T05:00:31;101868.53;;;13.37;100.00
68594;BME280;55563;52.416;13.548;2023-09-30T05:02:32;101873.75;;;13.32;100.00
68594;BME280;55563;52.416;13.548;2023-09-30T05:04:33;101878.47;;;13.30;100.00
68594;BME280;55563;52.416;13.548;2023-09-30T05:06:34;101878.31;;;13.20;100.00
68594;BME280;55563;52.416;13.548;2023-09-30T05:08:35;101882.06;;;13.24;100.00
68594;BME280;55563;52.416;13.548;2023-09-30T05:10:36;101894.22;;;13.25;100.00
68594;BME280;55563;52.416;13.548;2023-09-30T05:12:37;101890.38;;;13.32;100.00
68594;BME280;55563;52.416;13.548;2023-09-30T05:14:38;101896.44;;;13.11;100.00
68594;BME280;55563;52.416;13.548;2023-09-30T05:16:39;101897.06;;;13.01;100.00
68594;BME280;55563;52.416;13.548;2023-09-30T05:18:41;101904.91;;;13.13;100.00
68594;BME280;55563;52.416;13.548;2023-09-30T05:20:42;101909.63;;;13.11;100.00
68594;BME280;55563;52.416;13.548;2023-09-30T05:22:43;101911.25;;;13.12;100.00
68594;BME280;55563;52.416;13.548;2023-09-30T05:24:47;101913.53;;;13.08;100.00
68594;BME280;55563;52.416;13.548;2023-09-30T05:26:48;101908.25;;;13.08;100.00
68594;BME280;55563;52.416;13.548;2023-09-30T05:28:48;101907.94;;;13.05;100.00
68594;BME280;55563;52.416;13.548;2023-09-30T05:30:49;101911.72;;;13.09;100.00
68594;BME280;55563;52.416;13.548;2023-09-30T05:32:51;101903.09;;;13.14;100.00
68594;BME280;55563;52.416;13.548;2023-09-30T05:34:53;101910.44;;;13.12;100.00
68594;BME280;55563;52.416;13.548;2023-09-30T05:36:54;101912.84;;;13.13;100.00
68594;BME280;55563;52.416;13.548;2023-09-30T05:38:55;101929.38;;;13.08;100.00
68594;BME280;55563;52.416;13.548;2023-09-30T05:40:56;101923.53;;;13.06;100.00
68594;BME280;55563;52.416;13.548;2023-09-30T05:42:59;101931.75;;;13.10;100.00
68594;BME280;55563;52.416;13.548;2023-09-30T05:45:00;101934.66;;;13.08;100.00
68594;BME280;55563;52.416;13.548;2023-09-30T05:47:01;101933.38;;;13.11;100.00
68594;BME280;55563;52.416;13.548;2023-09-30T05:49:01;101942.59;;;13.08;100.00
68594;BME280;55563;52.416;13.548;2023-09-30T05:51:02;101938.66;;;13.11;100.00
68594;BME280;55563;52.416;13.548;2023-09-30T05:53:03;101938.88;;;13.09;100.00
68594;BME280;55563;52.416;13.548;2023-09-30T05:55:05;101940.16;;;13.07;100.00
68594;BME280;55563;52.416;13.548;2023-09-30T05:57:06;101944.03;;;13.16;100.00
68594;BME280;55563;52.416;13.548;2023-09-30T05:59:07;101942.53;;;13.42;100.00
68594;BME280;55563;52.416;13.548;2023-09-30T06:01:08;101946.41;;;13.56;100.00
68594;BME280;55563;52.416;13.548;2023-09-30T06:03:11;101954.53;;;13.71;100.00
68594;BME280;55563;52.416;13.548;2023-09-30T06:05:12;101963.78;;;13.95;100.00
68594;BME280;55563;52.416;13.548;2023-09-30T06:07:12;101966.44;;;13.95;100.00
68594;BME280;55563;52.416;13.548;2023-09-30T06:09:13;101956.69;;;14.01;100.00
68594;BME280;55563;52.416;13.548;2023-09-30T06:11:18;101949.06;;;14.05;100.00
68594;BME280;55563;52.416;13.548;2023-09-30T06:13:19;101952.34;;;14.17;100.00
68594;BME280;55563;52.416;13.548;2023-09-30T06:15:22;101959.31;;;14.23;100.00
68594;BME280;55563;52.416;13.548;2023-09-30T06:17:26;101954.72;;;14.40;100.00
68594;BME280;55563;52.416;13.548;2023-09-30T06:19:26;101948.72;;;14.50;100.00
68594;BME280;55563;52.416;13.548;2023-09-30T06:21:27;101956.59;;;14.71;100.00
68594;BME280;55563;52.416;13.548;2023-09-30T06:23:30;101955.81;;;14.76;100.00
68594;BME280;55563;52.416;13.548;2023-09-30T06:25:31;101957.44;;;14.77;100.00
68594;BME280;55563;52.416;13.548;2023-09-30T06:27:33;101966.44;;;14.81;100.00
68594;BME280;55563;52.416;13.548;2023-09-30T06:29:34;101968.50;;;14.74;100.00
68594;BME280;55563;52.416;13.548;2023-09-30T06:31:34;101973.41;;;14.60;100.00
68594;BME280;55563;52.416;13.548;2023-09-30T06:33:36;101969.50;;;14.68;100.00
68594;BME280;55563;52.416;13.548;2023-09-30T06:35:40;101973.75;;;14.69;100.00
68594;BME280;55563;52.416;13.548;2023-09-30T06:37:50;101976.34;;;14.64;100.00
68594;BME280;55563;52.416;13.548;2023-09-30T06:39:51;101979.22;;;14.57;100.00
68594;BME280;55563;52.416;13.548;2023-09-30T06:41:52;101982.03;;;14.46;100.00
68594;BME280;55563;52.416;13.548;2023-09-30T06:43:52;101992.09;;;14.49;100.00
68594;BME280;55563;52.416;13.548;2023-09-30T06:45:53;101982.59;;;14.48;100.00
68594;BME280;55563;52.416;13.548;2023-09-30T06:47:55;101987.91;;;14.53;100.00
68594;BME280;55563;52.416;13.548;2023-09-30T06:49:55;101985.59;;;14.61;100.00
68594;BME280;55563;52.416;13.548;2023-09-30T06:51:56;101997.78;;;14.62;100.00
68594;BME280;55563;52.416;13.548;2023-09-30T06:53:57;102002.34;;;14.67;100.00
68594;BME280;55563;52.416;13.548;2023-09-30T06:55:57;101999.97;;;14.70;100.00
68594;BME280;55563;52.416;13.548;2023-09-30T06:57:58;101998.03;;;14.61;100.00
68594;BME280;55563;52.416;13.548;2023-09-30T06:59:59;102006.81;;;14.66;100.00
68594;BME280;55563;52.416;13.548;2023-09-30T07:01:59;102009.47;;;14.66;100.00
68594;BME280;55563;52.416;13.548;2023-09-30T07:04:00;102012.34;;;14.65;100.00
68594;BME280;55563;52.416;13.548;2023-09-30T07:06:01;102016.38;;;14.72;100.00
68594;BME280;55563;52.416;13.548;2023-09-30T07:08:02;102018.97;;;14.62;100.00
68594;BME280;55563;52.416;13.548;2023-09-30T07:10:05;102014.44;;;14.63;100.00
68594;BME280;55563;52.416;13.548;2023-09-30T07:12:06;102026.47;;;14.75;100.00
68594;BME280;55563;52.416;13.548;2023-09-30T07:14:06;102024.44;;;14.88;100.00
68594;BME280;55563;52.416;13.548;2023-09-30T07:16:07;102026.84;;;14.89;100.00
68594;BME280;55563;52.416;13.548;2023-09-30T07:18:08;102029.84;;;14.98;100.00
68594;BME280;55563;52.416;13.548;2023-09-30T07:20:09;102028.53;;;15.00;100.00
68594;BME280;55563;52.416;13.548;2023-09-30T07:22:10;102036.78;;;15.04;100.00
68594;BME280;55563;52.416;13.548;2023-09-30T07:24:10;102029.16;;;15.12;100.00
68594;BME280;55563;52.416;13.548;2023-09-30T07:26:11;102037.28;;;15.01;100.00
68594;BME280;55563;52.416;13.548;2023-09-30T07:28:12;102044.19;;;15.07;100.00
68594;BME280;55563;52.416;13.548;2023-09-30T07:30:13;102038.69;;;15.13;100.00
68594;BME280;55563;52.416;13.548;2023-09-30T07:32:16;102044.84;;;15.19;100.00
68594;BME280;55563;52.416;13.548;2023-09-30T07:34:17;102048.25;;;15.14;100.00
68594;BME280;55563;52.416;13.548;2023-09-30T07:36:17;102052.66;;;15.04;100.00
68594;BME280;55563;52.416;13.548;2023-09-30T07:38:18;102049.28;;;15.13;100.00
68594;BME280;55563;52.416;13.548;2023-09-30T07:40:19;102047.53;;;15.24;100.00
68594;BME280;55563;52.416;13.548;2023-09-30T07:42:20;102040.97;;;15.37;100.00
68594;BME280;55563;52.416;13.548;2023-09-30T07:44:22;102047.53;;;15.24;100.00
68594;BME280;55563;52.416;13.548;2023-09-30T07:46:23;102051.28;;;15.33;100.00
68594;BME280;55563;52.416;13.548;2023-09-30T07:48:24;102053.97;;;15.38;100.00
68594;BME280;55563;52.416;13.548;2023-09-30T07:50:25;102060.34;;;15.42;100.00
68594;BME280;55563;52.416;13.548;2023-09-30T07:52:26;102053.69;;;15.40;100.00
68594;BME280;55563;52.416;13.548;2023-09-30T07:54:27;102064.59;;;15.43;100.00
68594;BME280;55563;52.416;13.548;2023-09-30T07:56:27;102061.78;;;15.55;100.00
68594;BME280;55563;52.416;13.548;2023-09-30T07:58:29;102057.03;;;15.57;100.00
68594;BME280;55563;52.416;13.548;2023-09-30T08:00:31;102063.63;;;15.54;100.00
68594;BME280;55563;52.416;13.548;2023-09-30T08:02:34;102060.19;;;15.54;100.00
68594;BME280;55563;52.416;13.548;2023-09-30T08:04:35;102068.34;;;15.47;100.00
68594;BME280;55563;52.416;13.548;2023-09-30T08:06:36;102067.75;;;15.40;100.00
68594;BME280;55563;52.416;13.548;2023-09-30T08:08:36;102077.78;;;15.33;100.00
68594;BME280;55563;52.416;13.548;2023-09-30T08:10:37;102082.28;;;15.33;100.00
68594;BME280;55563;52.416;13.548;2023-09-30T08:12:38;102074.56;;;15.31;100.00
68594;BME280;55563;52.416;13.548;2023-09-30T08:14:39;102073.25;;;15.28;100.00
68594;BME280;55563;52.416;13.548;2023-09-30T08:16:39;102079.41;;;15.39;100.00
68594;BME280;55563;52.416;13.548;2023-09-30T08:18:40;102079.63;;;15.33;100.00
68594;BME280;55563;52.416;13.548;2023-09-30T08:20:41;102081.75;;;15.36;100.00
68594;BME280;55563;52.416;13.548;2023-09-30T08:22:42;102079.69;;;15.43;100.00
68594;BME280;55563;52.416;13.548;2023-09-30T08:24:42;102082.59;;;15.41;100.00
68594;BME280;55563;52.416;13.548;2023-09-30T08:26:44;102086.09;;;15.47;100.00
68594;BME280;55563;52.416;13.548;2023-09-30T08:28:46;102080.03;;;15.51;100.00
68594;BME280;55563;52.416;13.548;2023-09-30T08:30:46;102087.25;;;15.61;100.00
68594;BME280;55563;52.416;13.548;2023-09-30T08:32:47;102083.31;;;15.68;100.00
68594;BME280;55563;52.416;13.548;2023-09-30T08:34:48;102081.78;;;15.73;100.00
68594;BME280;55563;52.416;13.548;2023-09-30T08:36:49;102091.34;;;15.84;100.00
68594;BME280;55563;52.416;13.548;2023-09-30T08:38:50;102084.22;;;15.89;100.00
68594;BME280;55563;52.416;13.548;2023-09-30T08:40:51;102081.59;;;15.94;100.00
68594;BME280;55563;52.416;13.548;2023-09-30T08:42:52;102088.50;;;15.95;100.00
68594;BME280;55563;52.416;13.548;2023-09-30T08:44:53;102094.13;;;16.04;100.00
68594;BME280;55563;52.416;13.548;2023-09-30T08:46:56;102088.91;;;16.24;100.00
68594;BME280;55563;52.416;13.548;2023-09-30T08:49:00;102086.78;;;16.31;100.00
68594;BME280;55563;52.416;13.548;2023-09-30T08:51:01;102087.88;;;16.35;100.00
68594;BME280;55563;52.416;13.548;2023-09-30T08:53:03;102084.09;;;16.26;100.00
68594;BME280;55563;52.416;13.548;2023-09-30T08:55:04;102082.81;;;16.29;100.00
68594;BME280;55563;52.416;13.548;2023-09-30T08:57:09;102083.84;;;16.28;100.00
68594;BME280;55563;52.416;13.548;2023-09-30T08:59:11;102082.03;;;16.38;100.00
68594;BME280;55563;52.416;13.548;2023-09-30T09:01:12;102081.84;;;16.65;100.00
68594;BME280;55563;52.416;13.548;2023-09-30T09:03:13;102077.34;;;16.66;100.00
68594;BME280;55563;52.416;13.548;2023-09-30T09:05:14;102084.78;;;16.59;100.00
68594;BME280;55563;52.416;13.548;2023-09-30T09:07:16;102080.28;;;16.64;100.00
68594;BME280;55563;52.416;13.548;2023-09-30T09:09:17;102085.34;;;16.86;100.00
68594;BME280;55563;52.416;13.548;2023-09-30T09:11:19;102090.38;;;16.67;100.00
68594;BME280;55563;52.416;13.548;2023-09-30T09:13:20;102087.44;;;16.69;100.00
68594;BME280;55563;52.416;13.548;2023-09-30T09:15:23;102084.50;;;16.70;100.00
68594;BME280;55563;52.416;13.548;2023-09-30T09:17:40;102077.34;;;16.71;100.00
68594;BME280;55563;52.416;13.548;2023-09-30T09:19:42;102094.66;;;16.83;100.00
68594;BME280;55563;52.416;13.548;2023-09-30T09:21:59;102086.66;;;16.88;100.00
68594;BME280;55563;52.416;13.548;2023-09-30T09:24:00;102080.28;;;16.89;100.00
68594;BME280;55563;52.416;13.548;2023-09-30T09:26:02;102080.28;;;16.99;100.00
68594;BME280;55563;52.416;13.548;2023-09-30T09:28:04;102071.00;;;17.02;100.00
68594;BME280;55563;52.416;13.548;2023-09-30T09:30:22;102077.91;;;17.23;100.00
68594;BME280;55563;52.416;13.548;2023-09-30T09:32:24;102075.50;;;17.22;100.00
68594;BME280;55563;52.416;13.548;2023-09-30T09:34:24;102086.13;;;17.32;100.00
68594;BME280;55563;52.416;13.548;2023-09-30T09:36:45;102089.03;;;17.46;100.00
68594;BME280;55563;52.416;13.548;2023-09-30T09:38:49;102087.69;;;17.53;100.00
68594;BME280;55563;52.416;13.548;2023-09-30T09:40:50;102082.09;;;17.70;100.00
68594;BME280;55563;52.416;13.548;2023-09-30T09:42:51;102094.31;;;17.71;100.00
68594;BME280;55563;52.416;13.548;2023-09-30T09:44:56;102085.28;;;17.72;100.00
68594;BME280;55563;52.416;13.548;2023-09-30T09:46:57;102087.94;;;17.77;100.00
68594;BME280;55563;52.416;13.548;2023-09-30T09:48:58;102081.56;;;17.68;100.00
68594;BME280;55563;52.416;13.548;2023-09-30T09:50:59;102078.38;;;17.71;100.00
68594;BME280;55563;52.416;13.548;2023-09-30T09:53:00;102085.44;;;18.01;100.00
68594;BME280;55563;52.416;13.548;2023-09-30T09:55:01;102093.44;;;18.01;100.00
68594;BME280;55563;52.416;13.548;2023-09-30T09:57:04;102089.41;;;18.08;100.00
68594;BME280;55563;52.416;13.548;2023-09-30T09:59:05;102087.06;;;18.02;100.00
68594;BME280;55563;52.416;13.548;2023-09-30T10:01:06;102085.16;;;18.12;100.00
68594;BME280;55563;52.416;13.548;2023-09-30T10:03:07;102078.75;;;18.08;100.00
68594;BME280;55563;52.416;13.548;2023-09-30T10:05:08;102083.75;;;18.25;100.00
68594;BME280;55563;52.416;13.548;2023-09-30T10:07:14;102076.44;;;18.46;100.00
68594;BME280;55563;52.416;13.548;2023-09-30T10:09:18;102086.56;;;18.44;100.00
68594;BME280;55563;52.416;13.548;2023-09-30T10:11:19;102082.50;;;18.61;100.00
68594;BME280;55563;52.416;13.548;2023-09-30T10:13:57;102081.81;;;18.85;100.00
68594;BME280;55563;52.416;13.548;2023-09-30T10:16:01;102076.78;;;18.78;100.00
68594;BME280;55563;52.416;13.548;2023-09-30T10:18:03;102083.47;;;18.76;100.00
68594;BME280;55563;52.416;13.548;2023-09-30T10:20:06;102072.50;;;18.82;100.00